createdAt,value
2022-09-07T00:02:20.572Z,68.88
2022-09-07T00:04:47.090Z,67.38
2022-09-07T00:07:13.844Z,66.10
2022-09-07T00:09:40.356Z,76.80
2022-09-07T00:12:06.940Z,68.63
2022-09-07T00:14:34.453Z,64.40
2022-09-07T00:17:01.005Z,66.78
2022-09-07T00:19:27.590Z,67.72
2022-09-07T00:21:54.094Z,67.32
2022-09-07T00:24:20.732Z,66.65
2022-09-07T00:26:47.215Z,66.82
2022-09-07T00:29:13.758Z,68.93
2022-09-07T00:31:40.340Z,66.22
2022-09-07T00:34:07.308Z,65.70
2022-09-07T00:36:33.853Z,70.28
2022-09-07T00:39:00.413Z,67.18
2022-09-07T00:41:27.966Z,70.38
2022-09-07T00:44:00.006Z,73.10
2022-09-07T00:46:29.540Z,78.88
2022-09-07T00:49:05.551Z,80.35
2022-09-07T00:51:39.532Z,80.50
2022-09-07T00:54:10.773Z,82.63
2022-09-07T00:56:42.454Z,81.40
2022-09-07T00:59:13.826Z,82.43
2022-09-07T01:01:40.635Z,83.32
2022-09-07T01:04:08.251Z,83.85
2022-09-07T01:06:38.101Z,82.45
2022-09-07T01:09:10.212Z,82.50
2022-09-07T01:11:37.508Z,82.85
2022-09-07T01:14:06.892Z,79.47
2022-09-07T01:16:45.615Z,79.32
2022-09-07T01:19:49.386Z,72.88
2022-09-07T01:22:34.478Z,69.15
2022-09-07T01:25:33.135Z,68.97
2022-09-07T01:28:05.726Z,68.70
2022-09-07T01:30:37.606Z,70.95
2022-09-07T01:33:30.078Z,67.15
2022-09-07T01:36:11.843Z,61.30
2022-09-07T01:38:44.422Z,62.05
2022-09-07T01:41:38.406Z,57.08
2022-09-07T01:44:12.109Z,52.92
2022-09-07T01:46:52.583Z,56.00
2022-09-07T01:49:27.162Z,53.05
2022-09-07T01:52:00.957Z,48.58
2022-09-07T01:54:33.344Z,47.55
2022-09-07T01:57:10.254Z,46.53
2022-09-07T01:59:51.868Z,42.25
2022-09-07T02:02:24.459Z,42.88
2022-09-07T02:05:01.484Z,42.22
2022-09-07T02:07:33.886Z,39.20
2022-09-07T02:10:11.235Z,36.63
2022-09-07T02:13:03.310Z,37.00
2022-09-07T02:15:41.708Z,34.95
2022-09-07T02:18:10.596Z,34.38
2022-09-07T02:20:38.971Z,34.40
2022-09-07T02:23:20.926Z,32.05
2022-09-07T02:25:53.631Z,31.00
2022-09-07T02:28:27.807Z,28.98
2022-09-07T02:30:54.474Z,26.02
2022-09-07T02:33:21.569Z,27.52
2022-09-07T02:35:48.267Z,23.33
2022-09-07T02:38:14.869Z,19.23
2022-09-07T02:40:41.403Z,22.17
2022-09-07T02:43:10.364Z,23.10
2022-09-07T02:45:48.195Z,20.55
2022-09-07T02:48:40.890Z,17.85
2022-09-07T02:51:28.898Z,17.50
2022-09-07T02:54:21.066Z,18.23
2022-09-07T02:57:03.279Z,15.57
2022-09-07T02:59:38.767Z,17.42
2022-09-07T03:02:20.853Z,17.13
2022-09-07T03:05:11.731Z,15.70
2022-09-07T03:07:45.275Z,16.35
2022-09-07T03:10:14.858Z,16.95
2022-09-07T03:12:47.473Z,15.45
2022-09-07T03:15:20.630Z,16.02
2022-09-07T03:17:47.240Z,15.85
2022-09-07T03:20:14.653Z,17.83
2022-09-07T03:22:41.196Z,14.98
2022-09-07T03:25:08.154Z,15.57
2022-09-07T03:27:34.744Z,16.13
2022-09-07T03:30:02.072Z,15.55
2022-09-07T03:32:33.118Z,17.38
2022-09-07T03:35:00.652Z,17.25
2022-09-07T03:37:27.540Z,16.08
2022-09-07T03:39:54.198Z,17.73
2022-09-07T03:42:21.467Z,18.08
2022-09-07T03:44:51.066Z,17.95
2022-09-07T03:47:18.255Z,17.98
2022-09-07T03:49:44.825Z,16.02
2022-09-07T03:52:12.143Z,17.70
2022-09-07T03:54:39.798Z,16.17
2022-09-07T03:57:07.169Z,17.20
2022-09-07T03:59:33.829Z,15.75
2022-09-07T04:02:00.760Z,16.15
2022-09-07T04:04:27.714Z,16.13
2022-09-07T04:06:54.494Z,16.08
2022-09-07T04:09:21.113Z,15.25
2022-09-07T04:11:47.641Z,14.82
2022-09-07T04:14:14.283Z,15.20
2022-09-07T04:16:41.065Z,16.80
2022-09-07T04:19:07.598Z,15.35
2022-09-07T04:21:34.373Z,15.60
2022-09-07T04:24:01.018Z,15.52
2022-09-07T04:26:33.975Z,16.38
2022-09-07T04:29:01.218Z,16.83
2022-09-07T04:31:27.828Z,16.17
2022-09-07T04:33:55.129Z,16.13
2022-09-07T04:36:22.606Z,16.08
2022-09-07T04:38:55.308Z,15.25
2022-09-07T04:41:23.388Z,14.30
2022-09-07T04:43:53.593Z,15.43
2022-09-07T04:46:21.983Z,14.52
2022-09-07T04:48:49.948Z,14.75
2022-09-07T04:51:19.551Z,14.82
2022-09-07T04:53:49.704Z,14.48
2022-09-07T04:56:17.695Z,16.05
2022-09-07T04:58:45.330Z,14.85
2022-09-07T05:01:14.275Z,13.77
2022-09-07T05:03:42.094Z,15.10
2022-09-07T05:06:09.105Z,13.05
2022-09-07T05:08:37.097Z,14.40
2022-09-07T05:11:04.452Z,16.17
2022-09-07T05:13:31.911Z,15.68
2022-09-07T05:15:59.802Z,14.25
2022-09-07T05:18:27.010Z,16.23
2022-09-07T05:20:53.644Z,15.23
2022-09-07T05:23:20.444Z,15.25
2022-09-07T05:25:47.291Z,17.60
2022-09-07T05:28:18.633Z,19.70
2022-09-07T05:36:20.610Z,18.55
2022-09-07T05:38:47.647Z,20.90
2022-09-07T05:41:17.185Z,21.85
2022-09-07T05:46:31.703Z,25.98
2022-09-07T05:48:58.305Z,31.42
2022-09-07T05:51:24.895Z,34.13
2022-09-07T05:53:51.448Z,38.20
2022-09-07T05:56:18.063Z,45.83
2022-09-07T05:58:49.128Z,47.08
2022-09-07T06:01:16.863Z,47.95
2022-09-07T06:03:44.503Z,56.63
2022-09-07T06:06:14.470Z,56.70
2022-09-07T06:08:49.150Z,59.30
2022-09-07T06:11:21.999Z,61.78
2022-09-07T06:13:48.950Z,62.17
2022-09-07T06:16:16.743Z,63.10
2022-09-07T06:18:45.363Z,70.55
2022-09-07T06:21:14.845Z,63.40
2022-09-07T06:23:42.737Z,66.00
2022-09-07T06:26:10.028Z,60.50
2022-09-07T06:28:39.354Z,66.43
2022-09-07T06:31:08.443Z,69.07
2022-09-07T06:33:36.216Z,70.00
2022-09-07T06:36:11.519Z,63.47
2022-09-07T06:38:38.908Z,66.70
2022-09-07T06:43:57.822Z,68.30
2022-09-07T06:49:11.500Z,73.88
2022-09-07T06:51:38.802Z,77.10
2022-09-07T06:56:52.063Z,89.07
2022-09-07T06:59:18.659Z,96.82
2022-09-07T07:01:45.178Z,118.60
2022-09-07T07:04:11.815Z,124.18
2022-09-07T07:06:39.532Z,130.95
2022-09-07T07:09:08.330Z,144.63
2022-09-07T07:11:37.217Z,146.50
2022-09-07T07:14:04.448Z,157.43
2022-09-07T07:16:31.394Z,165.55
2022-09-07T07:18:58.251Z,178.90
2022-09-07T07:21:24.913Z,190.70
2022-09-07T07:23:53.104Z,193.85
2022-09-07T07:26:26.827Z,198.98
2022-09-07T07:31:27.285Z,204.95
2022-09-07T07:33:53.961Z,211.55
2022-09-07T07:36:22.774Z,222.93
2022-09-07T07:38:59.203Z,235.57
2022-09-07T07:44:18.233Z,254.85
2022-09-07T07:46:48.151Z,246.55
2022-09-07T07:49:14.743Z,256.85
2022-09-07T07:54:27.834Z,264.23
2022-09-07T07:56:54.360Z,274.02
2022-09-07T07:59:21.078Z,288.52
2022-09-07T08:01:47.729Z,300.23
2022-09-07T08:04:14.317Z,314.02
2022-09-07T08:06:43.734Z,330.25
2022-09-07T08:09:11.967Z,359.95
2022-09-07T08:11:40.221Z,363.23
2022-09-07T08:14:09.802Z,370.83
2022-09-07T08:16:36.666Z,383.27
2022-09-07T08:19:03.505Z,415.92
2022-09-07T08:21:30.120Z,424.08
2022-09-07T08:23:56.881Z,413.40
2022-09-07T08:26:23.378Z,416.92
2022-09-07T08:28:50.052Z,432.70
2022-09-07T08:31:17.762Z,441.00
2022-09-07T08:33:44.736Z,449.27
2022-09-07T08:36:19.370Z,445.52
2022-09-07T08:38:46.675Z,445.63
2022-09-07T08:41:34.425Z,391.00
2022-09-07T08:44:11.878Z,433.52
2022-09-07T08:46:45.476Z,410.77
2022-09-07T08:49:25.991Z,418.40
2022-09-07T08:52:00.944Z,421.63
2022-09-07T08:54:27.677Z,482.25
2022-09-07T09:00:07.995Z,506.77
2022-09-07T09:02:38.818Z,498.48
2022-09-07T09:05:42.881Z,405.75
2022-09-07T09:08:19.455Z,500.73
2022-09-07T09:11:10.743Z,478.98
2022-09-07T09:14:03.228Z,438.73
2022-09-07T09:16:53.066Z,425.95
2022-09-07T09:19:52.797Z,390.83
2022-09-07T09:22:22.094Z,444.35
2022-09-07T09:25:07.540Z,397.15
2022-09-07T09:27:34.072Z,463.77
2022-09-07T09:30:00.560Z,400.10
2022-09-07T09:32:47.128Z,434.52
2022-09-07T09:35:19.763Z,448.63
2022-09-07T09:37:46.632Z,366.83
2022-09-07T09:40:51.361Z,382.55
2022-09-07T09:48:40.021Z,259.55
2022-09-07T09:53:57.246Z,413.15
2022-09-07T09:56:37.184Z,182.85
2022-09-07T10:05:46.579Z,89.45
2022-09-07T10:08:26.941Z,94.25
2022-09-07T10:10:58.366Z,74.35
2022-09-07T10:13:31.841Z,68.75
2022-09-07T10:16:07.113Z,49.78
2022-09-07T10:18:37.793Z,55.22
2022-09-07T10:21:25.553Z,405.67
2022-09-07T10:23:58.343Z,47.40
2022-09-07T10:26:36.345Z,41.57
2022-09-07T10:29:15.236Z,32.33
2022-09-07T10:32:09.793Z,29.77
2022-09-07T10:37:49.335Z,27.23
2022-09-07T10:40:31.725Z,26.63
2022-09-07T10:43:22.776Z,24.83
2022-09-07T10:46:07.837Z,25.55
2022-09-07T10:48:46.961Z,25.10
2022-09-07T10:51:22.298Z,26.75
2022-09-07T10:57:06.281Z,25.10
2022-09-07T11:00:11.549Z,24.58
2022-09-07T11:03:26.104Z,25.05
2022-09-07T11:06:06.468Z,28.02
2022-09-07T11:09:21.713Z,26.52
2022-09-07T11:12:09.253Z,26.58
2022-09-07T11:14:48.377Z,26.92
2022-09-07T11:17:23.311Z,28.10
2022-09-07T11:20:02.373Z,27.45
2022-09-07T11:22:44.977Z,27.30
2022-09-07T11:25:30.110Z,26.80
2022-09-07T11:28:02.670Z,27.92
2022-09-07T11:30:41.528Z,27.90
2022-09-07T11:33:33.146Z,30.88
2022-09-07T11:36:12.564Z,29.80
2022-09-07T11:38:45.064Z,31.98
2022-09-07T11:41:19.934Z,29.85
2022-09-07T11:43:50.703Z,32.13
2022-09-07T11:46:32.301Z,32.58
2022-09-07T11:48:59.763Z,31.25
2022-09-07T11:51:38.926Z,31.58
2022-09-07T11:54:25.186Z,30.70
2022-09-07T11:57:01.538Z,31.67
2022-09-07T12:00:08.440Z,31.35
2022-09-07T12:03:00.906Z,30.60
2022-09-07T12:05:43.177Z,32.22
2022-09-07T12:08:34.008Z,30.98
2022-09-07T12:11:08.499Z,30.20
2022-09-07T12:14:11.386Z,28.73
2022-09-07T12:16:43.979Z,29.00
2022-09-07T12:19:22.694Z,30.37
2022-09-07T12:21:51.923Z,29.75
2022-09-07T12:24:33.685Z,29.33
2022-09-07T12:27:01.001Z,30.15
2022-09-07T12:29:30.124Z,28.33
2022-09-07T12:32:07.411Z,27.13
2022-09-07T12:34:54.127Z,28.63
2022-09-07T12:37:26.768Z,26.52
2022-09-07T12:40:33.076Z,28.53
2022-09-07T12:43:14.628Z,27.05
2022-09-07T12:45:41.943Z,25.65
2022-09-07T12:48:17.302Z,24.95
2022-09-07T12:50:59.062Z,26.23
2022-09-07T12:53:25.567Z,25.50
2022-09-07T12:59:22.809Z,25.80
2022-09-07T13:02:26.902Z,27.33
2022-09-07T13:05:21.183Z,35.53
2022-09-07T13:08:24.817Z,38.38
2022-09-07T13:10:51.502Z,45.67
2022-09-07T13:16:10.585Z,46.67
2022-09-07T13:18:41.777Z,39.80
2022-09-07T13:21:08.318Z,35.45
2022-09-07T13:23:40.192Z,32.33
2022-09-07T13:26:10.709Z,30.80
2022-09-07T13:28:58.255Z,27.83
2022-09-07T13:31:45.394Z,29.77
2022-09-07T13:34:33.716Z,27.80
2022-09-07T13:37:02.020Z,26.63
2022-09-07T13:39:31.017Z,27.10
2022-09-07T13:41:59.967Z,27.73
2022-09-07T13:44:31.395Z,25.00
2022-09-07T13:47:22.689Z,26.10
2022-09-07T13:50:05.517Z,26.25
2022-09-07T13:52:50.116Z,27.75
2022-09-07T13:55:31.869Z,26.95
2022-09-07T13:57:58.341Z,27.20
2022-09-07T14:00:25.007Z,28.17
2022-09-07T14:02:56.575Z,29.88
2022-09-07T14:05:23.761Z,33.13
2022-09-07T14:07:50.283Z,32.15
2022-09-07T14:10:21.156Z,30.58
2022-09-07T14:12:50.942Z,32.38
2022-09-07T14:15:33.538Z,32.55
2022-09-07T14:18:12.771Z,31.85
2022-09-07T14:20:44.227Z,32.47
2022-09-07T14:23:23.899Z,34.67
2022-09-07T14:26:16.342Z,35.47
2022-09-07T14:31:15.340Z,32.83
2022-09-07T14:34:02.234Z,36.13
2022-09-07T14:36:47.993Z,35.22
2022-09-07T14:39:17.335Z,37.40
2022-09-07T14:41:44.660Z,31.98
2022-09-07T14:44:31.443Z,34.60
2022-09-07T14:47:02.943Z,33.20
2022-09-07T14:49:29.886Z,32.85
2022-09-07T14:51:56.967Z,30.45
2022-09-07T14:54:30.820Z,30.08
2022-09-07T14:57:04.617Z,29.60
2022-09-07T14:59:39.373Z,28.15
2022-09-07T15:02:29.963Z,26.80
2022-09-07T15:05:18.172Z,26.20
2022-09-07T15:07:51.368Z,25.88
2022-09-07T15:12:52.859Z,27.95
2022-09-07T15:15:21.810Z,26.92
2022-09-07T15:17:48.734Z,28.52
2022-09-07T15:20:44.260Z,28.73
2022-09-07T15:23:13.366Z,30.55
2022-09-07T15:25:45.304Z,33.58
2022-09-07T15:34:20.213Z,36.42
2022-09-07T15:36:52.225Z,36.42
2022-09-07T15:39:22.867Z,35.50
2022-09-07T15:41:49.673Z,37.90
2022-09-07T15:44:20.410Z,36.85
2022-09-07T15:49:35.954Z,38.92
2022-09-07T15:52:06.138Z,47.53
2022-09-07T15:54:35.296Z,43.30
2022-09-07T15:59:50.297Z,47.58
2022-09-07T16:05:04.675Z,54.50
2022-09-07T16:10:19.076Z,68.75
2022-09-07T16:13:03.222Z,71.20
2022-09-07T16:15:34.059Z,74.47
2022-09-07T16:18:02.297Z,78.40
2022-09-07T16:20:32.003Z,75.05
2022-09-07T16:23:15.514Z,70.82
2022-09-07T16:25:55.212Z,64.85
2022-09-07T16:28:21.736Z,63.85
2022-09-07T16:30:48.495Z,63.28
2022-09-07T16:33:15.230Z,56.95
2022-09-07T16:35:41.871Z,55.33
2022-09-07T16:40:55.022Z,34.05
2022-09-07T16:43:21.625Z,30.25
2022-09-07T16:46:04.010Z,27.98
2022-09-07T16:48:32.661Z,26.80
2022-09-07T16:51:02.412Z,29.67
2022-09-07T16:53:30.798Z,32.03
2022-09-07T16:56:05.418Z,35.03
2022-09-07T16:58:37.467Z,36.97
2022-09-07T17:01:06.691Z,39.00
2022-09-07T17:03:34.257Z,38.90
2022-09-07T17:06:01.369Z,36.83
2022-09-07T17:08:28.453Z,35.78
2022-09-07T17:11:02.642Z,32.60
2022-09-07T17:13:31.171Z,30.70
2022-09-07T17:16:10.695Z,32.83
2022-09-07T17:21:25.022Z,31.42
2022-09-07T17:23:55.698Z,35.05
2022-09-07T17:26:26.831Z,38.83
2022-09-07T17:28:56.616Z,41.67
2022-09-07T17:34:15.477Z,41.92
2022-09-07T17:36:42.763Z,40.50
2022-09-07T17:39:18.623Z,35.33
2022-09-07T17:41:52.674Z,32.90
2022-09-07T17:46:45.970Z,55.95
2022-09-07T17:49:14.480Z,90.35
2022-09-07T17:51:41.450Z,129.23
2022-09-07T17:54:11.409Z,165.68
2022-09-07T17:56:39.234Z,210.25
2022-09-07T18:01:54.038Z,209.50
2022-09-07T18:04:21.102Z,228.93
2022-09-07T18:06:47.713Z,290.63
2022-09-07T18:09:14.549Z,332.30
2022-09-07T18:11:47.243Z,415.75
2022-09-07T18:14:15.063Z,426.45
2022-09-07T18:16:43.474Z,469.63
2022-09-07T18:19:11.610Z,525.72
2022-09-07T18:21:41.198Z,586.00
2022-09-07T18:24:13.562Z,615.05
2022-09-07T18:26:40.916Z,611.42
2022-09-07T18:29:25.819Z,614.35
2022-09-07T18:31:54.406Z,641.35
2022-09-07T18:34:20.984Z,635.60
2022-09-07T18:36:47.649Z,650.83
2022-09-07T18:39:14.272Z,653.83
2022-09-07T18:41:42.041Z,663.40
2022-09-07T18:45:27.114Z,649.65
2022-09-07T18:46:55.422Z,653.03
2022-09-07T18:49:21.904Z,664.22
2022-09-07T18:54:34.962Z,683.15
2022-09-07T18:57:01.591Z,680.25
2022-09-07T18:59:29.566Z,712.67
2022-09-07T19:02:00.078Z,702.95
2022-09-07T19:05:49.613Z,698.67
2022-09-07T19:07:17.021Z,692.42
2022-09-07T19:09:43.600Z,699.67
2022-09-07T19:12:10.275Z,701.80
2022-09-07T19:14:36.854Z,699.30
2022-09-07T19:17:03.480Z,688.95
2022-09-07T19:19:30.265Z,693.67
2022-09-07T19:21:58.263Z,700.35
2022-09-07T19:24:25.770Z,676.85
2022-09-07T19:26:55.731Z,698.60
2022-09-07T19:29:24.970Z,683.97
2022-09-07T19:32:05.307Z,678.45
2022-09-07T19:34:32.669Z,653.13
2022-09-07T19:37:01.259Z,670.05
2022-09-07T19:39:27.916Z,668.55
2022-09-07T19:41:54.626Z,646.45
2022-09-07T19:44:21.184Z,635.53
2022-09-07T19:46:47.854Z,638.22
2022-09-07T19:49:14.454Z,632.70
2022-09-07T19:51:42.118Z,619.97
2022-09-07T19:54:13.897Z,614.95
2022-09-07T19:56:44.954Z,620.33
2022-09-07T19:59:12.413Z,609.58
2022-09-07T20:01:40.579Z,610.75
2022-09-07T20:04:14.751Z,603.70
2022-09-07T20:06:42.871Z,603.50
2022-09-07T20:09:09.465Z,601.45
2022-09-07T20:11:36.650Z,604.83
2022-09-07T20:14:03.799Z,601.75
2022-09-07T20:16:31.240Z,605.80
2022-09-07T20:18:59.274Z,593.17
2022-09-07T20:21:26.297Z,607.55
2022-09-07T20:23:52.931Z,600.88
2022-09-07T20:26:21.221Z,587.75
2022-09-07T20:29:05.861Z,591.13
2022-09-07T20:31:40.810Z,588.85
2022-09-07T20:34:08.835Z,586.85
2022-09-07T20:36:35.536Z,583.88
2022-09-07T20:39:02.017Z,577.55
2022-09-07T20:41:31.411Z,571.15
2022-09-07T20:44:00.014Z,565.65
2022-09-07T20:46:28.337Z,564.85
2022-09-07T20:48:55.234Z,552.17
2022-09-07T20:51:22.013Z,542.28
2022-09-07T20:53:49.606Z,539.65
2022-09-07T20:56:25.878Z,540.13
2022-09-07T20:58:57.714Z,527.63
2022-09-07T21:01:24.708Z,532.53
2022-09-07T21:03:53.273Z,522.80
2022-09-07T21:06:21.267Z,497.52
2022-09-07T21:08:49.096Z,486.25
2022-09-07T21:11:17.164Z,463.05
2022-09-07T21:13:43.982Z,442.15
2022-09-07T21:16:15.173Z,427.02
2022-09-07T21:18:44.033Z,428.20
2022-09-07T21:21:20.200Z,440.08
2022-09-07T21:23:47.781Z,402.50
2022-09-07T21:26:14.487Z,388.25
2022-09-07T21:28:40.998Z,375.17
2022-09-07T21:31:09.075Z,370.55
2022-09-07T21:33:37.235Z,381.33
2022-09-07T21:36:09.336Z,378.48
2022-09-07T21:38:37.415Z,374.38
2022-09-07T21:41:08.270Z,360.80
2022-09-07T21:43:35.087Z,347.50
2022-09-07T21:46:09.626Z,338.88
2022-09-07T21:48:36.485Z,323.90
2022-09-07T21:51:04.199Z,331.88
2022-09-07T21:53:31.061Z,310.10
2022-09-07T21:56:05.213Z,311.65
2022-09-07T22:01:00.721Z,290.15
2022-09-07T22:03:27.438Z,295.08
2022-09-07T22:05:54.143Z,295.40
2022-09-07T22:08:20.828Z,304.08
2022-09-07T22:10:47.362Z,305.33
2022-09-07T22:13:13.992Z,297.27
2022-09-07T22:15:41.569Z,305.30
2022-09-07T22:18:12.155Z,303.70
2022-09-07T22:20:39.006Z,301.83
2022-09-07T22:23:05.752Z,301.27
2022-09-07T22:25:33.103Z,304.67
2022-09-07T22:27:59.727Z,300.45
2022-09-07T22:30:26.471Z,297.17
2022-09-07T22:32:53.022Z,293.70
2022-09-07T22:35:20.305Z,289.60
2022-09-07T22:37:46.861Z,290.38
2022-09-07T22:40:14.799Z,273.70
2022-09-07T22:42:41.923Z,269.92
2022-09-07T22:45:09.304Z,255.45
2022-09-07T22:47:35.966Z,248.88
2022-09-07T22:50:02.505Z,235.50
2022-09-07T22:52:28.994Z,230.10
2022-09-07T22:54:55.492Z,224.82
2022-09-07T22:57:22.047Z,223.60
2022-09-07T22:59:48.625Z,223.88
2022-09-07T23:02:15.134Z,210.95
2022-09-07T23:04:42.185Z,209.23
2022-09-07T23:07:08.916Z,198.18
2022-09-07T23:09:35.557Z,187.52
2022-09-07T23:12:02.299Z,191.75
2022-09-07T23:14:28.807Z,183.13
2022-09-07T23:16:55.278Z,169.18
2022-09-07T23:19:21.949Z,164.40
2022-09-07T23:21:49.043Z,163.45
2022-09-07T23:24:17.607Z,152.07
2022-09-07T23:26:44.614Z,149.35
2022-09-07T23:29:12.799Z,143.00
2022-09-07T23:31:40.333Z,137.95
2022-09-07T23:34:07.677Z,125.40
2022-09-07T23:36:34.362Z,124.72
2022-09-07T23:39:01.266Z,117.90
2022-09-07T23:41:28.882Z,112.57
2022-09-07T23:43:56.957Z,104.75
2022-09-07T23:46:24.101Z,94.65
2022-09-07T23:48:50.762Z,91.63
2022-09-07T23:51:22.847Z,86.15
2022-09-07T23:53:50.976Z,74.13
2022-09-07T23:56:17.471Z,73.45
2022-09-07T23:58:44.046Z,70.38
